| time (UTC) | temp F | wind direction | speed MPH | gust MPH | rain 1hr in | rain 24hr in | rain mn in | humidity % | barometer mb |
| 20260506051247 | 62 | 350 | 0.0 | 5.0 | 0.00 | 0.40 | 0.23 | 46 | 1008.7 |
| 20260506050747 | 62 | 290 | 2.0 | 9.0 | 0.00 | 0.40 | 0.23 | 46 | 1008.6 |
| 20260506050247 | 63 | 261 | 3.0 | 11.0 | 0.00 | 0.40 | 0.23 | 46 | 1008.6 |
| 20260506044743 | 63 | 290 | 1.0 | 5.0 | 0.00 | 0.41 | 0.23 | 49 | 1008.4 |
| 20260506044243 | 64 | 216 | 1.0 | 5.0 | 0.00 | 0.42 | 0.23 | 49 | 1008.4 |
| 20260506043746 | 64 | 247 | 3.0 | 10.0 | 0.00 | 0.42 | 0.23 | 48 | 1008.3 |
| 20260506043246 | 64 | 310 | 4.0 | 11.0 | 0.00 | 0.42 | 0.23 | 48 | 1008.3 |
| 20260506043010 | 64 | 276 | 4.0 | 11.0 | 0.00 | 0.42 | 0.23 | 48 | 1008.2 |
| 20260506042246 | 64 | 319 | 4.0 | 10.0 | 0.00 | 0.42 | 0.23 | 48 | 1008.3 |
| 20260506042005 | 65 | 283 | 5.0 | 11.0 | 0.00 | 0.43 | 0.23 | 47 | 1008.2 |
| 20260506041246 | 65 | 271 | 4.0 | 11.0 | 0.00 | 0.43 | 0.23 | 47 | 1008.2 |
| 20260506040741 | 65 | 296 | 5.0 | 10.0 | 0.00 | 0.43 | 0.23 | 46 | 1008.1 |
| 20260506040508 | 65 | 303 | 3.0 | 10.0 | 0.00 | 0.43 | 0.23 | 45 | 1008.1 |
| 20260506040001 | 65 | 310 | 4.0 | 10.0 | 0.00 | 0.44 | 0.23 | 44 | 1008.1 |
| 20260506035245 | 64 | 278 | 5.0 | 10.0 | 0.00 | 0.44 | 0.23 | 43 | 1007.8 |
| 20260506034745 | 64 | 298 | 2.0 | 6.0 | 0.00 | 0.44 | 0.23 | 42 | 1007.7 |
| 20260506034245 | 64 | 290 | 2.0 | 6.0 | 0.00 | 0.44 | 0.23 | 42 | 1007.7 |
| 20260506033745 | 64 | 292 | 0.0 | 2.0 | 0.00 | 0.44 | 0.23 | 42 | 1007.6 |
| 20260506033245 | 65 | 286 | 0.0 | 4.0 | 0.00 | 0.44 | 0.23 | 42 | 1007.5 |
| 20260506032745 | 65 | 296 | 1.0 | 4.0 | 0.00 | 0.44 | 0.23 | 41 | 1007.4 |
| 20260506032241 | 65 | 274 | 2.0 | 9.0 | 0.00 | 0.44 | 0.23 | 40 | 1007.4 |
| 20260506031741 | 65 | 299 | 4.0 | 9.0 | 0.00 | 0.44 | 0.23 | 40 | 1007.2 |
| 20260506031508 | 65 | 295 | 2.0 | 6.0 | 0.00 | 0.44 | 0.23 | 40 | 1007.2 |
| 20260506030745 | 66 | 266 | 2.0 | 7.0 | 0.00 | 0.44 | 0.23 | 39 | 1007.1 |
| 20260506030244 | 66 | 251 | 3.0 | 9.0 | 0.00 | 0.45 | 0.23 | 39 | 1007.0 |
| 20260506025744 | 66 | 299 | 4.0 | 9.0 | 0.00 | 0.45 | 0.23 | 38 | 1007.1 |
| 20260506025243 | 66 | 303 | 4.0 | 7.0 | 0.00 | 0.46 | 0.23 | 37 | 1007.0 |
| 20260506024743 | 66 | 326 | 1.0 | 7.0 | 0.00 | 0.47 | 0.23 | 37 | 1007.0 |
| 20260506024244 | 66 | 303 | 4.0 | 9.0 | 0.00 | 0.47 | 0.23 | 36 | 1006.9 |
| 20260506023744 | 66 | 281 | 2.0 | 10.0 | 0.00 | 0.48 | 0.23 | 35 | 1006.8 |
| 20260506023504 | 67 | 330 | 5.0 | 10.0 | 0.00 | 0.49 | 0.23 | 35 | 1006.6 |
| 20260506022744 | 67 | 288 | 4.0 | 9.0 | 0.00 | 0.49 | 0.23 | 34 | 1006.5 |
| 20260506022244 | 67 | 309 | 4.0 | 10.0 | 0.00 | 0.49 | 0.23 | 34 | 1006.4 |
| 20260506021743 | 67 | 298 | 4.0 | 14.0 | 0.00 | 0.50 | 0.23 | 33 | 1006.2 |
| 20260506021243 | 67 | 271 | 6.0 | 14.0 | 0.00 | 0.50 | 0.23 | 32 | 1006.2 |
| 20260506020743 | 67 | 302 | 6.0 | 16.0 | 0.00 | 0.51 | 0.23 | 33 | 1006.1 |
| 20260506020243 | 68 | 255 | 6.0 | 16.0 | 0.00 | 0.52 | 0.23 | 33 | 1006.0 |
| 20260506020004 | 68 | 296 | 6.0 | 14.0 | 0.00 | 0.53 | 0.23 | 34 | 1006.0 |
| 20260506015243 | 68 | 296 | 6.0 | 14.0 | 0.00 | 0.54 | 0.23 | 34 | 1005.9 |
| 20260506014738 | 69 | 238 | 5.0 | 14.0 | 0.00 | 0.55 | 0.23 | 34 | 1005.9 |
| 20260506014242 | 69 | 286 | 8.0 | 16.0 | 0.00 | 0.56 | 0.23 | 34 | 1006.0 |
| 20260506013957 | 69 | 251 | 9.0 | 16.0 | 0.00 | 0.56 | 0.23 | 34 | 1005.9 |
| 20260506013507 | 70 | 266 | 8.0 | 16.0 | 0.00 | 0.57 | 0.23 | 33 | 1005.9 |
| 20260506012742 | 70 | 279 | 8.0 | 19.0 | 0.00 | 0.58 | 0.23 | 34 | 1005.7 |
| 20260506012500 | 70 | 286 | 9.0 | 20.0 | 0.00 | 0.59 | 0.23 | 34 | 1005.7 |
| 20260506011742 | 70 | 293 | 10.0 | 20.0 | 0.00 | 0.60 | 0.23 | 33 | 1005.6 |
| 20260506011459 | 71 | 293 | 6.0 | 16.0 | 0.00 | 0.60 | 0.23 | 32 | 1005.6 |
| 20260506010738 | 71 | 286 | 6.0 | 20.0 | 0.00 | 0.60 | 0.23 | 32 | 1005.6 |
| 20260506010239 | 71 | 261 | 7.0 | 20.0 | 0.00 | 0.61 | 0.23 | 31 | 1005.5 |
| 20260506010008 | 72 | 24 | 10.0 | 17.0 | 0.00 | 0.61 | 0.23 | 29 | 1005.5 |
| 20260506005242 | 72 | 292 | 8.0 | 17.0 | 0.00 | 0.61 | 0.23 | 29 | 1005.3 |
| 20260506004741 | 72 | 226 | 10.0 | 17.0 | 0.00 | 0.62 | 0.23 | 29 | 1005.2 |
| 20260506004241 | 73 | 250 | 6.0 | 15.0 | 0.00 | 0.62 | 0.23 | 29 | 1005.2 |
| 20260506003741 | 73 | 278 | 8.0 | 15.0 | 0.00 | 0.62 | 0.23 | 28 | 1005.1 |
| 20260506003241 | 73 | 257 | 6.0 | 12.0 | 0.00 | 0.63 | 0.23 | 28 | 1005.2 |
| 20260506002741 | 73 | 295 | 6.0 | 12.0 | 0.00 | 0.63 | 0.23 | 28 | 1005.1 |
| 20260506002241 | 73 | 268 | 5.0 | 18.0 | 0.00 | 0.63 | 0.23 | 28 | 1005.1 |
| 20260506001738 | 72 | 266 | 10.0 | 18.0 | 0.00 | 0.64 | 0.23 | 26 | 1005.2 |
| 20260506001240 | 73 | 245 | 10.0 | 16.0 | 0.00 | 0.64 | 0.23 | 27 | 1005.0 |
| 20260506000740 | 73 | 275 | 8.0 | 17.0 | 0.00 | 0.65 | 0.23 | 28 | 1005.1 |
| 20260506000240 | 73 | 190 | 7.0 | 17.0 | 0.00 | 0.65 | 0.23 | 27 | 1005.0 |
| 20260506000227 | 73 | 175 | 6.0 | 21.0 | 0.00 | 0.65 | 0.23 | 28 | 1005.0 |
| 20260505235240 | 73 | 278 | 11.0 | 21.0 | 0.00 | 0.65 | 0.23 | 27 | 1004.9 |
| 20260505234739 | 73 | 300 | 6.0 | 15.0 | 0.00 | 0.65 | 0.23 | 28 | 1004.9 |
| 20260505234457 | 73 | 262 | 9.0 | 15.0 | 0.00 | 0.65 | 0.23 | 26 | 1004.9 |
| 20260505233736 | 74 | 247 | 6.0 | 15.0 | 0.00 | 0.65 | 0.23 | 27 | 1004.9 |
| 20260505233452 | 73 | 275 | 4.0 | 11.0 | 0.00 | 0.67 | 0.23 | 29 | 1004.8 |
| 20260505233336 | 74 | 262 | 9.0 | 15.0 | 0.00 | 0.65 | 0.23 | 27 | 1004.9 |
| 20260505232239 | 73 | 266 | 5.0 | 11.0 | 0.00 | 0.67 | 0.23 | 30 | 1004.9 |
| 20260505231738 | 72 | 248 | 3.0 | 16.0 | 0.00 | 0.67 | 0.23 | 31 | 1004.9 |
| 20260505231239 | 73 | 290 | 7.0 | 16.0 | 0.00 | 0.67 | 0.23 | 30 | 1005.0 |
| 20260505230739 | 73 | 255 | 6.0 | 14.0 | 0.00 | 0.67 | 0.23 | 30 | 1004.9 |
| 20260505230458 | 74 | 289 | 10.0 | 14.0 | 0.00 | 0.67 | 0.23 | 29 | 1005.0 |
| 20260505225739 | 74 | 261 | 8.0 | 13.0 | 0.00 | 0.67 | 0.23 | 29 | 1005.0 |
| 20260505225239 | 74 | 275 | 4.0 | 13.0 | 0.00 | 0.67 | 0.23 | 31 | 1005.1 |
| 20260505224738 | 74 | 289 | 7.0 | 14.0 | 0.00 | 0.67 | 0.23 | 30 | 1005.1 |
| 20260505224238 | 74 | 244 | 9.0 | 14.0 | 0.00 | 0.67 | 0.23 | 29 | 1005.2 |
| 20260505223738 | 75 | 290 | 5.0 | 18.0 | 0.00 | 0.67 | 0.23 | 29 | 1005.2 |
| 20260505223239 | 75 | 183 | 10.0 | 18.0 | 0.00 | 0.67 | 0.23 | 29 | 1005.3 |
| 20260505222738 | 74 | 264 | 8.0 | 17.0 | 0.00 | 0.67 | 0.23 | 29 | 1005.3 |
| 20260505222238 | 74 | 283 | 5.0 | 17.0 | 0.00 | 0.67 | 0.23 | 31 | 1005.3 |
| 20260505221738 | 73 | 303 | 8.0 | 17.0 | 0.00 | 0.67 | 0.23 | 31 | 1005.3 |
| 20260505221234 | 73 | 306 | 7.0 | 16.0 | 0.00 | 0.67 | 0.23 | 31 | 1005.5 |
| 20260505220737 | 73 | 302 | 4.0 | 15.0 | 0.00 | 0.67 | 0.23 | 31 | 1005.6 |
| 20260505220237 | 74 | 275 | 7.0 | 20.0 | 0.00 | 0.67 | 0.23 | 31 | 1005.7 |
| 20260505215957 | 74 | 228 | 8.0 | 20.0 | 0.00 | 0.67 | 0.23 | 31 | 1005.8 |
| 20260505215236 | 74 | 300 | 6.0 | 18.0 | 0.00 | 0.67 | 0.23 | 31 | 1005.7 |
| 20260505214736 | 74 | 289 | 9.0 | 18.0 | 0.00 | 0.67 | 0.23 | 29 | 1005.7 |
| 20260505214237 | 74 | 258 | 9.0 | 18.0 | 0.00 | 0.67 | 0.23 | 30 | 1005.8 |
| 20260505213733 | 74 | 279 | 10.0 | 22.0 | 0.00 | 0.67 | 0.23 | 29 | 1005.9 |
| 20260505213233 | 73 | 286 | 8.0 | 22.0 | 0.00 | 0.67 | 0.23 | 30 | 1006.0 |
| 20260505212733 | 74 | 282 | 10.0 | 22.0 | 0.00 | 0.67 | 0.23 | 31 | 1006.0 |
| 20260505212237 | 74 | 281 | 10.0 | 22.0 | 0.00 | 0.67 | 0.23 | 32 | 1006.0 |
| 20260505211737 | 74 | 186 | 11.0 | 21.0 | 0.00 | 0.67 | 0.23 | 31 | 1006.1 |
| 20260505211236 | 73 | 250 | 9.0 | 19.0 | 0.00 | 0.67 | 0.23 | 32 | 1006.1 |
| 20260505211000 | 72 | 295 | 11.0 | 19.0 | 0.00 | 0.67 | 0.23 | 33 | 1006.2 |
| 20260505210236 | 72 | 259 | 9.0 | 19.0 | 0.00 | 0.67 | 0.23 | 35 | 1006.2 |
| 20260505210226 | 72 | 230 | 6.0 | 19.0 | 0.00 | 0.67 | 0.23 | 36 | 1006.2 |
| 20260505205449 | 73 | 299 | 2.0 | 17.0 | 0.00 | 0.67 | 0.23 | 38 | 1006.3 |
| 20260505205330 | 73 | 285 | 11.0 | 19.0 | 0.00 | 0.67 | 0.23 | 35 | 1006.2 |
| 20260505204235 | 73 | 219 | 9.0 | 20.0 | 0.00 | 0.67 | 0.23 | 37 | 1006.3 |
| 20260505203735 | 73 | 259 | 11.0 | 20.0 | 0.00 | 0.67 | 0.23 | 36 | 1006.4 |
| 20260505203235 | 74 | 54 | 9.0 | 19.0 | 0.00 | 0.67 | 0.23 | 37 | 1006.3 |
| 20260505202735 | 73 | 214 | 7.0 | 20.0 | 0.00 | 0.67 | 0.23 | 40 | 1006.4 |
| 20260505202239 | 72 | 227 | 13.0 | 20.0 | 0.00 | 0.67 | 0.23 | 40 | 1006.4 |
| 20260505201735 | 72 | 305 | 8.0 | 16.0 | 0.00 | 0.67 | 0.23 | 41 | 1006.3 |
| 20260505201235 | 70 | 278 | 3.0 | 12.0 | 0.00 | 0.67 | 0.23 | 49 | 1006.4 |
| 20260505200731 | 69 | 300 | 5.0 | 13.0 | 0.00 | 0.67 | 0.23 | 49 | 1006.3 |
| 20260505200231 | 69 | 288 | 6.0 | 14.0 | 0.00 | 0.67 | 0.23 | 51 | 1006.5 |
| 20260505195735 | 70 | 345 | 6.0 | 14.0 | 0.00 | 0.67 | 0.23 | 53 | 1006.5 |
| 20260505195234 | 69 | 293 | 6.0 | 12.0 | 0.00 | 0.67 | 0.23 | 51 | 1006.5 |
| 20260505194734 | 69 | 320 | 5.0 | 13.0 | 0.00 | 0.67 | 0.23 | 52 | 1006.6 |
| 20260505194234 | 69 | 309 | 4.0 | 13.0 | 0.00 | 0.67 | 0.23 | 51 | 1006.6 |
| 20260505193959 | 70 | 293 | 4.0 | 11.0 | 0.00 | 0.67 | 0.23 | 50 | 1006.6 |
| 20260505193230 | 70 | 213 | 6.0 | 11.0 | 0.00 | 0.67 | 0.23 | 50 | 1006.6 |
| 20260505193215 | 69 | 326 | 5.0 | 7.0 | 0.00 | 0.67 | 0.23 | 51 | 1006.9 |
| 20260505192454 | 70 | 233 | 3.0 | 12.0 | 0.00 | 0.67 | 0.23 | 52 | 1006.9 |
| 20260505191731 | 70 | 321 | 5.0 | 12.0 | 0.00 | 0.67 | 0.23 | 53 | 1006.9 |
| 20260505191233 | 70 | 306 | 1.0 | 6.0 | 0.00 | 0.67 | 0.23 | 52 | 1007.0 |
| 20260505190734 | 69 | 234 | 0.0 | 7.0 | 0.00 | 0.67 | 0.23 | 55 | 1007.0 |
| 20260505190452 | 68 | 329 | 4.0 | 7.0 | 0.00 | 0.67 | 0.23 | 55 | 1007.1 |
| 20260505190222 | 68 | 344 | 3.0 | 7.0 | 0.00 | 0.67 | 0.23 | 55 | 1007.3 |
| 20260505185232 | 68 | 321 | 4.0 | 7.0 | 0.00 | 0.67 | 0.23 | 57 | 1007.4 |
| 20260505184734 | 68 | 276 | 3.0 | 6.0 | 0.00 | 0.67 | 0.23 | 57 | 1007.5 |
| 20260505184233 | 68 | 266 | 2.0 | 6.0 | 0.00 | 0.67 | 0.23 | 56 | 1007.6 |
| 20260505183953 | 68 | 299 | 3.0 | 9.0 | 0.00 | 0.67 | 0.23 | 57 | 1007.5 |
| 20260505183233 | 68 | 269 | 4.0 | 9.0 | 0.00 | 0.67 | 0.23 | 56 | 1007.5 |
| 20260505182732 | 68 | 305 | 1.0 | 6.0 | 0.00 | 0.67 | 0.23 | 57 | 1007.4 |
| 20260505182232 | 67 | 262 | 2.0 | 9.0 | 0.00 | 0.67 | 0.23 | 57 | 1007.7 |
| 20260505181733 | 68 | 252 | 4.0 | 9.0 | 0.00 | 0.67 | 0.23 | 56 | 1007.7 |
| 20260505181228 | 68 | 212 | 0.0 | 4.0 | 0.00 | 0.67 | 0.23 | 56 | 1007.5 |
| 20260505180728 | 68 | 244 | 1.0 | 6.0 | 0.00 | 0.67 | 0.23 | 57 | 1007.6 |
| 20260505180228 | 67 | 233 | 2.0 | 6.0 | 0.00 | 0.67 | 0.23 | 60 | 1007.7 |
| 20260505175728 | 67 | 275 | 2.0 | 4.0 | 0.00 | 0.67 | 0.23 | 59 | 1007.8 |
| 20260505175229 | 67 | 212 | 2.0 | 4.0 | 0.00 | 0.67 | 0.23 | 59 | 1007.8 |
| 20260505174731 | 66 | 152 | 2.0 | 6.0 | 0.00 | 0.67 | 0.23 | 59 | 1007.8 |
| 20260505174232 | 65 | 114 | 2.0 | 7.0 | 0.00 | 0.67 | 0.23 | 58 | 1007.9 |
| 20260505173731 | 66 | 334 | 3.0 | 7.0 | 0.00 | 0.67 | 0.23 | 59 | 1007.9 |
| 20260505173459 | 66 | 255 | 2.0 | 5.0 | 0.00 | 0.67 | 0.23 | 59 | 1007.8 |
| 20260505172731 | 66 | 279 | 0.0 | 4.0 | 0.00 | 0.67 | 0.23 | 59 | 1007.9 |
| 20260505172231 | 66 | 238 | 1.0 | 5.0 | 0.00 | 0.67 | 0.23 | 60 | 1008.1 |
| 20260505171730 | 65 | 254 | 2.0 | 5.0 | 0.00 | 0.67 | 0.23 | 61 | 1007.9 |
| 20260505171231 | 64 | 299 | 1.0 | 6.0 | 0.00 | 0.67 | 0.23 | 61 | 1007.8 |
| 20260505170731 | 64 | 286 | 1.0 | 6.0 | 0.00 | 0.67 | 0.23 | 64 | 1007.8 |
| 20260505170230 | 64 | 300 | 2.0 | 5.0 | 0.00 | 0.67 | 0.23 | 64 | 1007.8 |
| 20260505165955 | 64 | 320 | 2.0 | 5.0 | 0.00 | 0.67 | 0.23 | 64 | 1007.8 |
| 20260505165230 | 64 | 338 | 1.0 | 5.0 | 0.00 | 0.67 | 0.23 | 65 | 1007.8 |
| 20260505164731 | 64 | 250 | 1.0 | 5.0 | 0.00 | 0.67 | 0.23 | 67 | 1007.8 |
| 20260505164230 | 63 | 276 | 0.0 | 5.0 | 0.00 | 0.67 | 0.23 | 71 | 1007.8 |
| 20260505163730 | 62 | 271 | 2.0 | 5.0 | 0.00 | 0.67 | 0.23 | 69 | 1007.9 |
| 20260505163229 | 62 | 292 | 3.0 | 4.0 | 0.00 | 0.67 | 0.23 | 71 | 1008.1 |
| 20260505162730 | 62 | 290 | 2.0 | 5.0 | 0.00 | 0.67 | 0.23 | 74 | 1007.9 |
| 20260505162230 | 62 | 309 | 2.0 | 5.0 | 0.00 | 0.67 | 0.23 | 75 | 1008.1 |
| 20260505161953 | 62 | 300 | 1.0 | 4.0 | 0.00 | 0.67 | 0.23 | 75 | 1007.9 |
| 20260505161449 | 62 | 244 | 0.0 | 3.0 | 0.00 | 0.67 | 0.23 | 76 | 1008.1 |
| 20260505160950 | 62 | 247 | 2.0 | 3.0 | 0.00 | 0.67 | 0.23 | 74 | 1008.1 |
| 20260505160453 | 62 | 286 | 0.0 | 2.0 | 0.00 | 0.67 | 0.23 | 74 | 1007.8 |
| 20260505153228 | 61 | 245 | 2.0 | 3.0 | 0.00 | 0.67 | 0.23 | 78 | 1007.7 |
| 20260505152728 | 61 | 293 | 0.0 | 1.0 | 0.00 | 0.67 | 0.23 | 80 | 1007.7 |
| 20260505152228 | 61 | 290 | 0.0 | 1.0 | 0.00 | 0.67 | 0.23 | 83 | 1007.7 |
| 20260505151728 | 61 | 254 | 0.0 | 1.0 | 0.00 | 0.67 | 0.23 | 84 | 1007.7 |
| 20260505151228 | 60 | 285 | 0.0 | 0.0 | 0.00 | 0.67 | 0.23 | 85 | 1007.7 |
| 20260505150728 | 60 | 298 | 0.0 | 0.0 | 0.00 | 0.67 | 0.23 | 86 | 1007.6 |
| 20260505150228 | 60 | 293 | 0.0 | 0.0 | 0.00 | 0.67 | 0.23 | 88 | 1007.6 |
| 20260505130225 | 58 | 324 | 0.0 | 0.0 | 0.01 | 0.67 | 0.23 | 93 | 1006.9 |
| 20260505124948 | 57 | 309 | 0.0 | 0.0 | 0.02 | 0.67 | 0.23 | 92 | 1006.8 |
| 20260505124225 | 57 | 309 | 0.0 | 0.0 | 0.02 | 0.67 | 0.23 | 92 | 1006.8 |
| 20260505123725 | 57 | 309 | 0.0 | 0.0 | 0.02 | 0.67 | 0.23 | 92 | 1006.9 |
| 20260505123224 | 57 | 309 | 0.0 | 0.0 | 0.02 | 0.67 | 0.23 | 91 | 1006.6 |
| 20260505122723 | 57 | 309 | 0.0 | 0.0 | 0.02 | 0.67 | 0.23 | 91 | 1006.5 |
| 20260505122224 | 57 | 309 | 0.0 | 0.0 | 0.01 | 0.66 | 0.22 | 91 | 1006.5 |
| 20260505121724 | 57 | 35 | 0.0 | 0.0 | 0.01 | 0.66 | 0.22 | 90 | 1006.4 |
| 20260505121223 | 57 | 35 | 0.0 | 0.0 | 0.01 | 0.66 | 0.22 | 89 | 1006.2 |
| 20260505120724 | 58 | 38 | 0.0 | 1.0 | 0.02 | 0.66 | 0.22 | 89 | 1006.3 |
| 20260505120457 | 58 | 39 | 0.0 | 2.0 | 0.02 | 0.66 | 0.22 | 87 | 1006.3 |
| 20260505115723 | 58 | 48 | 0.0 | 6.0 | 0.02 | 0.66 | 0.22 | 87 | 1006.2 |
| 20260505115223 | 57 | 73 | 2.0 | 6.0 | 0.02 | 0.66 | 0.22 | 88 | 1006.2 |
| 20260505114723 | 57 | 48 | 0.0 | 4.0 | 0.02 | 0.65 | 0.21 | 89 | 1006.2 |
| 20260505114444 | 57 | 54 | 1.0 | 4.0 | 0.02 | 0.65 | 0.21 | 89 | 1006.3 |
| 20260505113938 | 57 | 38 | 0.0 | 0.0 | 0.02 | 0.65 | 0.21 | 90 | 1006.3 |
| 20260505113223 | 57 | 55 | 0.0 | 0.0 | 0.02 | 0.65 | 0.21 | 90 | 1006.6 |
| 20260505112947 | 57 | 45 | 0.0 | 0.0 | 0.02 | 0.65 | 0.21 | 88 | 1006.8 |
| 20260505112222 | 57 | 45 | 0.0 | 2.0 | 0.03 | 0.65 | 0.21 | 87 | 1006.5 |
| 20260505111722 | 57 | 45 | 0.0 | 5.0 | 0.03 | 0.65 | 0.21 | 86 | 1006.4 |
| 20260505111222 | 58 | 48 | 2.0 | 5.0 | 0.03 | 0.65 | 0.21 | 88 | 1006.4 |
| 20260505110723 | 57 | 51 | 0.0 | 5.0 | 0.02 | 0.64 | 0.20 | 89 | 1006.8 |
| 20260505110222 | 57 | 51 | 2.0 | 5.0 | 0.02 | 0.64 | 0.20 | 90 | 1006.9 |
| 20260505102221 | 57 | 45 | 0.0 | 2.0 | 0.04 | 0.62 | 0.19 | 92 | 1007.4 |
| 20260505101950 | 57 | 24 | 0.0 | 2.0 | 0.05 | 0.62 | 0.18 | 92 | 1007.6 |
| 20260505101220 | 57 | 44 | 0.0 | 0.0 | 0.05 | 0.62 | 0.18 | 91 | 1007.7 |
| 20260505100720 | 57 | 102 | 0.0 | 0.0 | 0.05 | 0.62 | 0.18 | 91 | 1007.9 |
| 20260505100220 | 57 | 97 | 0.0 | 0.0 | 0.06 | 0.62 | 0.18 | 92 | 1008.2 |
| 20260505095720 | 57 | 99 | 0.0 | 0.0 | 0.06 | 0.62 | 0.18 | 92 | 1008.1 |
| 20260505095220 | 57 | 97 | 0.0 | 0.0 | 0.05 | 0.61 | 0.18 | 92 | 1007.9 |
| 20260505094720 | 57 | 158 | 0.0 | 5.0 | 0.06 | 0.61 | 0.17 | 92 | 1008.2 |
| 20260505094703 | 57 | 79 | 0.0 | 5.0 | 0.06 | 0.61 | 0.17 | 93 | 1007.9 |
| 20260505093943 | 57 | 78 | 1.0 | 4.0 | 0.05 | 0.60 | 0.17 | 93 | 1007.6 |
| 20260505093220 | 57 | 102 | 0.0 | 3.0 | 0.06 | 0.60 | 0.16 | 93 | 1008.2 |
| 20260505092720 | 57 | 162 | 0.0 | 3.0 | 0.05 | 0.59 | 0.15 | 93 | 1008.8 |
| 20260505092219 | 57 | 103 | 0.0 | 6.0 | 0.05 | 0.58 | 0.14 | 93 | 1008.5 |
| 20260505091719 | 58 | 140 | 0.0 | 6.0 | 0.04 | 0.57 | 0.13 | 93 | 1008.5 |
| 20260505091219 | 58 | 69 | 1.0 | 6.0 | 0.05 | 0.57 | 0.13 | 93 | 1008.4 |
| 20260505090719 | 58 | 123 | 1.0 | 6.0 | 0.05 | 0.57 | 0.13 | 93 | 1008.5 |
| 20260505090219 | 58 | 185 | 1.0 | 4.0 | 0.05 | 0.56 | 0.12 | 93 | 1008.6 |
| 20260505085719 | 58 | 121 | 0.0 | 4.0 | 0.05 | 0.56 | 0.12 | 92 | 1008.7 |
| 20260505085218 | 58 | 104 | 1.0 | 3.0 | 0.06 | 0.56 | 0.12 | 92 | 1008.7 |
| 20260505084718 | 58 | 140 | 1.0 | 3.0 | 0.05 | 0.55 | 0.11 | 92 | 1008.8 |
| 20260505084219 | 58 | 162 | 0.0 | 1.0 | 0.06 | 0.55 | 0.11 | 92 | 1009.1 |
| 20260505083718 | 58 | 89 | 0.0 | 1.0 | 0.07 | 0.55 | 0.11 | 92 | 1009.4 |
| 20260505083218 | 58 | 99 | 0.0 | 0.0 | 0.06 | 0.54 | 0.10 | 92 | 1009.6 |
| 20260505082940 | 58 | 125 | 0.0 | 0.0 | 0.07 | 0.54 | 0.10 | 92 | 1009.7 |
| 20260505082218 | 58 | 127 | 0.0 | 0.0 | 0.07 | 0.53 | 0.10 | 91 | 1009.8 |
| 20260505081718 | 58 | 190 | 0.0 | 0.0 | 0.07 | 0.53 | 0.09 | 92 | 1009.7 |
| 20260505081218 | 58 | 190 | 0.0 | 0.0 | 0.07 | 0.52 | 0.08 | 91 | 1009.9 |
| 20260505080718 | 58 | 200 | 0.0 | 0.0 | 0.07 | 0.52 | 0.08 | 92 | 1010.0 |
| 20260505080437 | 58 | 255 | 0.0 | 0.0 | 0.07 | 0.51 | 0.07 | 91 | 1010.1 |
| 20260505075718 | 58 | 255 | 0.0 | 0.0 | 0.07 | 0.51 | 0.07 | 91 | 1010.2 |
| 20260505075217 | 58 | 255 | 0.0 | 0.0 | 0.06 | 0.50 | 0.06 | 91 | 1010.3 |
| 20260505074717 | 58 | 255 | 0.0 | 0.0 | 0.07 | 0.50 | 0.06 | 90 | 1010.4 |
| 20260505074217 | 58 | 255 | 0.0 | 0.0 | 0.06 | 0.49 | 0.05 | 90 | 1010.5 |
| 20260505073717 | 58 | 310 | 0.0 | 0.0 | 0.06 | 0.48 | 0.04 | 91 | 1010.5 |
| 20260505073217 | 58 | 39 | 0.0 | 0.0 | 0.06 | 0.48 | 0.04 | 91 | 1010.4 |
| 20260505072717 | 58 | 21 | 0.0 | 0.0 | 0.06 | 0.47 | 0.03 | 92 | 1010.4 |
| 20260505072217 | 58 | 17 | 0.0 | 0.0 | 0.06 | 0.46 | 0.03 | 92 | 1010.3 |
| 20260505071717 | 58 | 17 | 0.0 | 0.0 | 0.07 | 0.46 | 0.02 | 92 | 1010.3 |
| 20260505071217 | 58 | 17 | 0.0 | 0.0 | 0.07 | 0.45 | 0.01 | 92 | 1010.3 |
| 20260505070717 | 58 | 17 | 0.0 | 0.0 | 0.09 | 0.45 | 0.01 | 91 | 1010.3 |
| 20260505070437 | 58 | 18 | 0.0 | 0.0 | 0.09 | 0.44 | 0.01 | 91 | 1010.2 |
| 20260505065941 | 58 | 18 | 0.0 | 0.0 | 0.11 | 0.44 | 0.44 | 90 | 1010.1 |
| 20260505065216 | 58 | 18 | 0.0 | 0.0 | 0.12 | 0.44 | 0.44 | 90 | 1010.2 |
| 20260505064716 | 58 | 28 | 0.0 | 0.0 | 0.12 | 0.43 | 0.43 | 90 | 1010.2 |
| 20260505064440 | 58 | 27 | 0.0 | 0.0 | 0.12 | 0.43 | 0.43 | 90 | 1010.1 |
| 20260505063716 | 58 | 27 | 0.0 | 0.0 | 0.12 | 0.42 | 0.42 | 89 | 1010.0 |
| 20260505063216 | 58 | 27 | 0.0 | 0.0 | 0.13 | 0.42 | 0.42 | 89 | 1010.0 |
| 20260505062715 | 58 | 27 | 0.0 | 0.0 | 0.12 | 0.41 | 0.41 | 89 | 1010.1 |
| 20260505062215 | 58 | 11 | 0.0 | 0.0 | 0.12 | 0.40 | 0.40 | 89 | 1010.1 |
| 20260505061716 | 58 | 0 | 0.0 | 0.0 | 0.11 | 0.39 | 0.39 | 90 | 1010.2 |
| 20260505061216 | 58 | 0 | 0.0 | 0.0 | 0.11 | 0.38 | 0.38 | 90 | 1010.2 |
| 20260505060715 | 59 | 49 | 0.0 | 0.0 | 0.09 | 0.36 | 0.36 | 90 | 1010.2 |
| 20260505060215 | 59 | 49 | 0.0 | 0.0 | 0.08 | 0.35 | 0.35 | 90 | 1010.2 |
| 20260505055714 | 59 | 49 | 0.0 | 0.0 | 0.06 | 0.33 | 0.33 | 90 | 1010.2 |
| 20260505055214 | 59 | 49 | 0.0 | 0.0 | 0.06 | 0.32 | 0.32 | 90 | 1010.2 |
| 20260505054714 | 59 | 49 | 0.0 | 3.0 | 0.05 | 0.31 | 0.31 | 90 | 1009.9 |
| 20260505054214 | 59 | 24 | 0.0 | 3.0 | 0.06 | 0.31 | 0.31 | 90 | 1010.0 |
| 20260505053715 | 59 | 34 | 0.0 | 0.0 | 0.05 | 0.30 | 0.30 | 90 | 1010.0 |
| 20260505053214 | 60 | 173 | 0.0 | 0.0 | 0.04 | 0.29 | 0.29 | 90 | 1010.2 |
| 20260505052714 | 60 | 173 | 0.0 | 0.0 | 0.04 | 0.29 | 0.29 | 90 | 1010.2 |
| 20260505052214 | 60 | 173 | 0.0 | 0.0 | 0.03 | 0.28 | 0.28 | 89 | 1010.1 |